Time;durP1;ratioP1;P1;durP2;ratioP2;P2;SDS_P1;SDS_P2;PMS_P1;PMS_P2;Temp;Humidity;BMP_temperature;BMP_pressure;BME280_temperature;BME280_humidity;BME280_pressure;Samples;Min_cycle;Max_cycle;Signal;HPM_P1;HPM_P2
2021/09/30 00:00:20;;;;;;;1.08;0.40;;;;;;;;;;5069270;28;20039;-61
2021/09/30 00:02:46;;;;;;;1.27;0.50;;;;;;;;;;5068616;28;20054;-61
2021/09/30 00:05:13;;;;;;;1.27;0.40;;;;;;;;;;5072233;28;20028;-61
2021/09/30 00:07:39;;;;;;;0.50;0.50;;;;;;;;;;5089915;28;20052;-61
2021/09/30 00:10:07;;;;;;;0.50;0.45;;;;;;;;;;5089643;28;20055;-61
2021/09/30 00:12:38;;;;;;;0.40;0.40;;;;;;;;;;5088206;28;20447;-61
2021/09/30 00:15:07;;;;;;;1.02;0.50;;;;;;;;;;5069873;28;20114;-61
2021/09/30 00:33:46;;;;;;;0.70;0.40;;;;;;;;;;5088747;28;20432;-62
2021/09/30 00:39:35;;;;;;;1.65;0.40;;;;;;;;;;5076584;28;20032;-61
2021/09/30 02:18:15;;;;;;;0.65;0.52;;;;;;;;;;5083310;28;20165;-61
2021/09/30 02:21:44;;;;;;;;;;;;;;;;;;5067075;28;20051;-61
2021/09/30 02:58:59;;;;;;;0.40;0.40;;;;;;;;;;5066505;28;20039;-60
2021/09/30 03:01:27;;;;;;;0.38;0.38;;;;;;;;;;5078849;28;20054;-61
2021/09/30 03:03:54;;;;;;;0.40;0.40;;;;;;;;;;5085911;28;20028;-60
2021/09/30 03:06:21;;;;;;;0.30;0.30;;;;;;;;;;5086796;28;20846;-61
2021/09/30 03:08:52;;;;;;;0.70;0.55;;;;;;;;;;5086557;28;20038;-61
2021/09/30 03:11:20;;;;;;;0.65;0.40;;;;;;;;;;5072506;28;20032;-61
2021/09/30 03:13:48;;;;;;;0.85;0.40;;;;;;;;;;5065643;28;20036;-61
2021/09/30 03:16:22;;;;;;;0.50;0.40;;;;;;;;;;5066063;28;20086;-61
2021/09/30 03:18:54;;;;;;;1.05;0.38;;;;;;;;;;5069800;28;20102;-61
2021/09/30 03:24:05;;;;;;;0.45;0.40;;;;;;;;;;5075343;28;20434;-61
2021/09/30 03:26:32;;;;;;;0.80;0.55;;;;;;;;;;5085823;28;20093;-61
2021/09/30 03:28:59;;;;;;;0.80;0.50;;;;;;;;;;5068154;28;20463;-61
2021/09/30 03:31:25;;;;;;;0.93;0.60;;;;;;;;;;5071906;28;20437;-61
2021/09/30 03:33:52;;;;;;;1.20;0.70;;;;;;;;;;5066138;28;20472;-61
2021/09/30 03:36:18;;;;;;;1.30;0.50;;;;;;;;;;5065102;28;20029;-61
2021/09/30 03:38:44;;;;;;;0.40;0.40;;;;;;;;;;5065833;28;20023;-61
2021/09/30 03:41:10;;;;;;;0.52;0.52;;;;;;;;;;5073591;28;20021;-61
2021/09/30 03:43:36;;;;;;;0.55;0.55;;;;;;;;;;5079412;28;20028;-61
2021/09/30 03:46:02;;;;;;;1.17;0.60;;;;;;;;;;5065497;28;20028;-61
2021/09/30 03:48:28;;;;;;;0.70;0.52;;;;;;;;;;5065427;28;20430;-61
2021/09/30 04:01:15;;;;;;;1.13;0.50;;;;;;;;;;5069558;28;20098;-61
2021/09/30 04:03:41;;;;;;;0.50;0.50;;;;;;;;;;5069161;28;20085;-60
2021/09/30 04:06:07;;;;;;;0.63;0.50;;;;;;;;;;5068846;28;20104;-61
2021/09/30 04:08:34;;;;;;;0.73;0.50;;;;;;;;;;5075278;28;20594;-61
2021/09/30 04:11:00;;;;;;;2.65;0.70;;;;;;;;;;5089371;28;20133;-61
2021/09/30 04:13:26;;;;;;;1.50;0.60;;;;;;;;;;5087119;28;20532;-61
2021/09/30 04:15:52;;;;;;;1.00;0.73;;;;;;;;;;5089228;28;20020;-61
2021/09/30 04:18:19;;;;;;;1.08;0.60;;;;;;;;;;5068872;28;20112;-61
2021/09/30 04:20:45;;;;;;;0.28;0.28;;;;;;;;;;5068679;28;20032;-60
2021/09/30 04:23:11;;;;;;;0.82;0.40;;;;;;;;;;5069546;28;20102;-61
2021/09/30 04:25:38;;;;;;;0.52;0.30;;;;;;;;;;5086211;28;20028;-61
2021/09/30 04:28:04;;;;;;;0.38;0.38;;;;;;;;;;5072216;28;20044;-61
2021/09/30 04:30:31;;;;;;;0.95;0.47;;;;;;;;;;5068391;28;20032;-61
2021/09/30 04:32:57;;;;;;;0.40;0.40;;;;;;;;;;5068874;28;20031;-61
2021/09/30 04:35:23;;;;;;;0.50;0.50;;;;;;;;;;5068518;28;20440;-61
2021/09/30 04:37:49;;;;;;;1.77;0.90;;;;;;;;;;5068467;28;20469;-61
2021/09/30 04:40:15;;;;;;;0.65;0.50;;;;;;;;;;5067994;28;20032;-61
2021/09/30 04:42:41;;;;;;;1.08;0.50;;;;;;;;;;5069046;28;20583;-61
2021/09/30 04:45:07;;;;;;;0.28;0.28;;;;;;;;;;5068298;28;20396;-61
2021/09/30 04:47:33;;;;;;;1.08;0.60;;;;;;;;;;5067813;28;20035;-61
2021/09/30 04:50:00;;;;;;;1.13;0.55;;;;;;;;;;5050443;28;20071;-61
2021/09/30 04:52:26;;;;;;;0.73;0.70;;;;;;;;;;5068198;28;20020;-61
2021/09/30 04:54:52;;;;;;;0.57;0.50;;;;;;;;;;5068255;28;20464;-61
2021/09/30 04:57:18;;;;;;;1.25;0.57;;;;;;;;;;5068527;28;20028;-61
2021/09/30 04:59:44;;;;;;;0.50;0.40;;;;;;;;;;5067615;28;20451;-61
2021/09/30 05:02:10;;;;;;;1.23;0.50;;;;;;;;;;5067983;28;20070;-60
2021/09/30 05:04:36;;;;;;;1.88;0.65;;;;;;;;;;5067958;28;20272;-61
2021/09/30 05:07:02;;;;;;;1.02;0.52;;;;;;;;;;5077131;28;20580;-60
2021/09/30 05:09:31;;;;;;;1.20;0.63;;;;;;;;;;5071533;28;20028;-60
2021/09/30 05:12:01;;;;;;;0.40;0.30;;;;;;;;;;5068201;28;20021;-60
2021/09/30 05:14:27;;;;;;;0.80;0.57;;;;;;;;;;5066784;28;20078;-60
2021/09/30 05:16:54;;;;;;;0.93;0.47;;;;;;;;;;5067461;28;20035;-60
2021/09/30 05:19:20;;;;;;;0.52;0.50;;;;;;;;;;5067238;28;20032;-60
2021/09/30 05:21:46;;;;;;;0.68;0.40;;;;;;;;;;5083395;28;20123;-60
2021/09/30 05:24:13;;;;;;;0.65;0.47;;;;;;;;;;5088705;28;20028;-61
2021/09/30 05:26:39;;;;;;;1.30;0.70;;;;;;;;;;5074800;28;20035;-60
2021/09/30 05:29:06;;;;;;;1.13;0.50;;;;;;;;;;5067730;28;20120;-59
2021/09/30 05:31:33;;;;;;;0.65;0.40;;;;;;;;;;5082584;28;20020;-61
2021/09/30 05:33:59;;;;;;;0.93;0.60;;;;;;;;;;5087787;28;20025;-60
2021/09/30 05:36:25;;;;;;;0.40;0.40;;;;;;;;;;5076661;28;20025;-61
2021/09/30 05:38:51;;;;;;;0.82;0.52;;;;;;;;;;5073973;28;20027;-61
2021/09/30 05:41:18;;;;;;;1.05;0.50;;;;;;;;;;5087557;28;20410;-60
2021/09/30 05:44:22;;;;;;;1.55;0.57;;;;;;;;;;5066335;28;20576;-60
2021/09/30 05:46:43;;;;;;;0.80;0.60;;;;;;;;;;5063772;28;20045;-60
2021/09/30 05:49:10;;;;;;;0.45;0.40;;;;;;;;;;5067925;28;20020;-61
2021/09/30 05:51:36;;;;;;;1.02;0.60;;;;;;;;;;5066932;28;20492;-60
2021/09/30 05:54:03;;;;;;;1.42;0.50;;;;;;;;;;5070179;28;21074;-60
2021/09/30 05:56:29;;;;;;;0.98;0.50;;;;;;;;;;5069205;28;20116;-60
2021/09/30 05:58:55;;;;;;;0.43;0.40;;;;;;;;;;5067158;28;20128;-60
2021/09/30 06:01:42;;;;;;;0.50;0.50;;;;;;;;;;5067054;28;20031;-60
2021/09/30 06:05:07;;;;;;;1.33;0.65;;;;;;;;;;5065945;28;20504;-60
2021/09/30 06:12:32;;;;;;;1.20;0.70;;;;;;;;;;5086874;28;19915;-60
2021/09/30 06:15:00;;;;;;;1.17;0.63;;;;;;;;;;5086162;28;20039;-61
2021/09/30 06:17:27;;;;;;;1.30;0.70;;;;;;;;;;5074957;28;20082;-60
2021/09/30 06:19:54;;;;;;;1.15;0.60;;;;;;;;;;5072536;28;20031;-60
2021/09/30 06:22:20;;;;;;;1.20;0.50;;;;;;;;;;5067131;28;20452;-59
2021/09/30 06:24:46;;;;;;;1.23;0.70;;;;;;;;;;5066685;28;20098;-60
2021/09/30 06:27:12;;;;;;;0.88;0.60;;;;;;;;;;5067269;28;20545;-60
2021/09/30 06:29:38;;;;;;;1.45;0.70;;;;;;;;;;5066058;28;20498;-60
2021/09/30 06:32:04;;;;;;;1.17;0.70;;;;;;;;;;5064288;28;20032;-60
2021/09/30 06:34:31;;;;;;;0.63;0.50;;;;;;;;;;5056364;28;20060;-61
2021/09/30 06:36:57;;;;;;;0.63;0.60;;;;;;;;;;5067231;28;20059;-61
2021/09/30 06:39:23;;;;;;;0.98;0.63;;;;;;;;;;5067027;28;20025;-61
2021/09/30 06:41:49;;;;;;;1.10;0.70;;;;;;;;;;5067170;28;20365;-61
2021/09/30 06:44:15;;;;;;;1.05;0.52;;;;;;;;;;5066967;28;20028;-61
2021/09/30 06:46:41;;;;;;;0.50;0.50;;;;;;;;;;5067448;28;20044;-61
2021/09/30 06:49:07;;;;;;;1.02;0.60;;;;;;;;;;5055079;28;20017;-61
2021/09/30 06:51:35;;;;;;;0.88;0.60;;;;;;;;;;5066152;28;20027;-61
2021/09/30 06:54:01;;;;;;;1.65;0.50;;;;;;;;;;5067013;28;20028;-60
2021/09/30 06:56:29;;;;;;;2.05;0.68;;;;;;;;;;5066871;28;20448;-61
2021/09/30 06:59:00;;;;;;;0.85;0.60;;;;;;;;;;5067021;28;20027;-61
2021/09/30 07:01:26;;;;;;;1.13;0.57;;;;;;;;;;5063395;28;20025;-61
2021/09/30 07:03:52;;;;;;;1.45;0.60;;;;;;;;;;5058570;28;20086;-61
2021/09/30 07:06:18;;;;;;;0.82;0.50;;;;;;;;;;5072538;28;20383;-61
2021/09/30 07:08:45;;;;;;;1.55;0.57;;;;;;;;;;5080445;28;20501;-61
2021/09/30 07:11:11;;;;;;;0.60;0.50;;;;;;;;;;5086835;28;20070;-60
2021/09/30 07:13:37;;;;;;;1.40;0.52;;;;;;;;;;5071607;28;20063;-60
2021/09/30 07:16:03;;;;;;;1.17;0.60;;;;;;;;;;5066708;28;20411;-60
2021/09/30 07:18:29;;;;;;;0.57;0.45;;;;;;;;;;5066254;28;20028;-60
2021/09/30 07:21:05;;;;;;;1.77;0.60;;;;;;;;;;5066837;28;20083;-61
2021/09/30 07:23:31;;;;;;;1.25;0.60;;;;;;;;;;5066512;28;20032;-61
2021/09/30 07:25:58;;;;;;;6.03;1.08;;;;;;;;;;5067889;28;20043;-60
2021/09/30 07:28:24;;;;;;;1.05;0.70;;;;;;;;;;5075331;28;20138;-60
2021/09/30 07:30:51;;;;;;;0.55;0.55;;;;;;;;;;5067260;28;20024;-61
2021/09/30 07:33:18;;;;;;;0.57;0.40;;;;;;;;;;5070436;28;20085;-61
2021/09/30 07:35:44;;;;;;;0.50;0.47;;;;;;;;;;5068528;28;20411;-61
2021/09/30 07:38:10;;;;;;;0.88;0.50;;;;;;;;;;5071635;28;20086;-61
2021/09/30 07:40:36;;;;;;;1.83;0.43;;;;;;;;;;5069778;28;20119;-61
2021/09/30 07:43:03;;;;;;;0.80;0.50;;;;;;;;;;5070222;28;20115;-61
2021/09/30 07:45:30;;;;;;;0.88;0.55;;;;;;;;;;5083753;28;20568;-61
2021/09/30 07:47:56;;;;;;;1.23;0.45;;;;;;;;;;5090437;28;20044;-61
2021/09/30 07:50:22;;;;;;;0.57;0.57;;;;;;;;;;5071555;28;20029;-61
2021/09/30 07:52:50;;;;;;;1.65;0.52;;;;;;;;;;5068334;28;20024;-61
2021/09/30 07:55:16;;;;;;;0.85;0.50;;;;;;;;;;5069456;28;20076;-60
2021/09/30 07:57:42;;;;;;;1.20;0.70;;;;;;;;;;5055094;28;20048;-61
2021/09/30 08:00:08;;;;;;;1.20;0.80;;;;;;;;;;5060288;28;20028;-61
2021/09/30 08:02:34;;;;;;;1.13;0.55;;;;;;;;;;5070189;28;20495;-62
2021/09/30 08:05:00;;;;;;;0.57;0.47;;;;;;;;;;5090034;28;20020;-61
2021/09/30 08:07:26;;;;;;;0.52;0.40;;;;;;;;;;5071507;28;20119;-60
2021/09/30 08:09:52;;;;;;;2.28;0.77;;;;;;;;;;5070137;28;20733;-61
2021/09/30 08:12:19;;;;;;;0.85;0.50;;;;;;;;;;5076286;28;20021;-61
2021/09/30 08:14:46;;;;;;;0.70;0.50;;;;;;;;;;5061407;28;20507;-61
2021/09/30 08:17:12;;;;;;;0.63;0.50;;;;;;;;;;5061325;28;20039;-61
2021/09/30 08:19:38;;;;;;;1.02;0.70;;;;;;;;;;5064166;28;20055;-61
2021/09/30 08:22:04;;;;;;;0.57;0.50;;;;;;;;;;5060576;28;20078;-61
2021/09/30 08:24:30;;;;;;;1.13;0.60;;;;;;;;;;5058445;28;20090;-61
2021/09/30 08:26:56;;;;;;;0.70;0.50;;;;;;;;;;5069219;28;20078;-61
2021/09/30 08:29:22;;;;;;;0.40;0.40;;;;;;;;;;5069376;28;20031;-61
2021/09/30 08:31:48;;;;;;;0.52;0.50;;;;;;;;;;5067687;28;20082;-61
2021/09/30 08:34:15;;;;;;;1.08;0.55;;;;;;;;;;5068903;28;20082;-60
2021/09/30 08:36:41;;;;;;;0.82;0.60;;;;;;;;;;5048211;28;20032;-61
2021/09/30 08:39:08;;;;;;;0.60;0.40;;;;;;;;;;5061859;28;20049;-61
2021/09/30 08:41:34;;;;;;;0.47;0.47;;;;;;;;;;5085342;28;20027;-61
2021/09/30 08:44:01;;;;;;;0.60;0.40;;;;;;;;;;5068866;28;20035;-60
2021/09/30 08:46:27;;;;;;;1.67;0.50;;;;;;;;;;5076982;28;20025;-61
2021/09/30 08:48:53;;;;;;;0.40;0.40;;;;;;;;;;5069823;28;20021;-61
2021/09/30 08:51:20;;;;;;;1.50;0.50;;;;;;;;;;5068718;28;20526;-60
2021/09/30 08:53:46;;;;;;;1.58;0.60;;;;;;;;;;5067548;28;20099;-61
2021/09/30 08:56:12;;;;;;;1.55;0.80;;;;;;;;;;5049459;28;20067;-61
2021/09/30 08:58:39;;;;;;;1.30;0.73;;;;;;;;;;5064665;28;20459;-61
2021/09/30 09:01:07;;;;;;;0.77;0.60;;;;;;;;;;5068949;28;20017;-61
2021/09/30 09:03:33;;;;;;;0.60;0.50;;;;;;;;;;5066955;28;20025;-60
2021/09/30 09:05:59;;;;;;;0.77;0.50;;;;;;;;;;5054179;28;20028;-61
2021/09/30 09:08:26;;;;;;;1.20;0.60;;;;;;;;;;5062639;28;20029;-61
2021/09/30 09:10:54;;;;;;;1.45;0.50;;;;;;;;;;5067194;28;20027;-61
2021/09/30 09:13:24;;;;;;;0.30;0.30;;;;;;;;;;5059067;28;20545;-61
2021/09/30 09:15:59;;;;;;;0.88;0.40;;;;;;;;;;5067362;28;20020;-61
2021/09/30 09:18:31;;;;;;;0.85;0.50;;;;;;;;;;5066885;28;20025;-61
2021/09/30 09:21:15;;;;;;;0.85;0.30;;;;;;;;;;5067267;28;20039;-60
2021/09/30 09:23:55;;;;;;;2.53;0.55;;;;;;;;;;5067059;28;20035;-61
2021/09/30 09:26:24;;;;;;;0.38;0.32;;;;;;;;;;5066983;28;20032;-61
2021/09/30 09:29:09;;;;;;;0.38;0.38;;;;;;;;;;5066943;28;20029;-61
2021/09/30 09:31:38;;;;;;;0.93;0.50;;;;;;;;;;5066041;28;20032;-61
2021/09/30 09:34:17;;;;;;;0.65;0.40;;;;;;;;;;5067085;28;20031;-61
2021/09/30 09:36:44;;;;;;;0.40;0.30;;;;;;;;;;5066775;28;20109;-62
2021/09/30 09:39:10;;;;;;;0.40;0.38;;;;;;;;;;5066539;28;20016;-61
2021/09/30 09:41:36;;;;;;;0.60;0.52;;;;;;;;;;5066503;28;20434;-61
2021/09/30 09:44:04;;;;;;;1.08;0.40;;;;;;;;;;5066867;28;20021;-61
2021/09/30 09:46:35;;;;;;;1.88;0.50;;;;;;;;;;5066584;28;20047;-61
2021/09/30 09:49:02;;;;;;;0.45;0.40;;;;;;;;;;5067385;28;20078;-61
2021/09/30 09:51:35;;;;;;;2.13;0.50;;;;;;;;;;5066221;28;20024;-61
2021/09/30 09:54:02;;;;;;;0.43;0.30;;;;;;;;;;5067283;28;20450;-61
2021/09/30 09:56:28;;;;;;;0.50;0.40;;;;;;;;;;5066039;28;20047;-61
2021/09/30 09:58:57;;;;;;;0.30;0.30;;;;;;;;;;5053707;28;20025;-61
2021/09/30 10:01:27;;;;;;;0.30;0.30;;;;;;;;;;5044650;28;20377;-61
2021/09/30 10:03:55;;;;;;;0.50;0.28;;;;;;;;;;5045091;28;20031;-61
2021/09/30 10:06:22;;;;;;;0.20;0.20;;;;;;;;;;5062164;28;20031;-61
2021/09/30 10:08:48;;;;;;;0.40;0.32;;;;;;;;;;5065454;28;20032;-60
2021/09/30 10:11:14;;;;;;;0.30;0.30;;;;;;;;;;5063142;28;20606;-61
2021/09/30 10:13:40;;;;;;;2.30;0.52;;;;;;;;;;5066277;28;20040;-61
2021/09/30 10:16:07;;;;;;;0.40;0.20;;;;;;;;;;5073412;28;20067;-60
2021/09/30 10:18:33;;;;;;;0.20;0.20;;;;;;;;;;5070331;28;20028;-60
2021/09/30 10:20:59;;;;;;;0.30;0.30;;;;;;;;;;5065741;28;20027;-60
2021/09/30 10:23:27;;;;;;;0.30;0.30;;;;;;;;;;5062593;28;20119;-60
2021/09/30 10:25:54;;;;;;;0.30;0.30;;;;;;;;;;5065639;28;20036;-60
2021/09/30 10:28:20;;;;;;;0.30;0.30;;;;;;;;;;5065893;28;20033;-60
2021/09/30 10:30:50;;;;;;;0.60;0.38;;;;;;;;;;5065991;28;20024;-61
2021/09/30 10:33:23;;;;;;;0.20;0.20;;;;;;;;;;5067451;28;20107;-60
2021/09/30 10:35:52;;;;;;;0.30;0.30;;;;;;;;;;5058659;28;20024;-60
2021/09/30 10:38:23;;;;;;;0.30;0.30;;;;;;;;;;5065673;28;20047;-60
2021/09/30 10:41:01;;;;;;;0.88;0.55;;;;;;;;;;5071865;28;20017;-60
2021/09/30 10:43:29;;;;;;;0.68;0.32;;;;;;;;;;5081654;28;20040;-60
2021/09/30 10:45:55;;;;;;;0.30;0.30;;;;;;;;;;5075253;28;20028;-60
2021/09/30 10:48:24;;;;;;;0.30;0.20;;;;;;;;;;5066381;28;20029;-60
2021/09/30 10:50:55;;;;;;;0.52;0.30;;;;;;;;;;5081321;28;20073;-60
2021/09/30 10:53:41;;;;;;;0.52;0.38;;;;;;;;;;5046497;28;20055;-60
2021/09/30 10:56:27;;;;;;;1.00;0.30;;;;;;;;;;5070725;28;20620;-59
2021/09/30 10:58:58;;;;;;;0.45;0.30;;;;;;;;;;5077189;28;20046;-60
2021/09/30 11:01:25;;;;;;;0.30;0.30;;;;;;;;;;5078121;28;20032;-60
2021/09/30 11:04:00;;;;;;;0.55;0.50;;;;;;;;;;5081614;28;20030;-60
2021/09/30 11:06:27;;;;;;;0.20;0.20;;;;;;;;;;5072470;28;20036;-60
2021/09/30 11:09:15;;;;;;;0.30;0.30;;;;;;;;;;5085950;28;20411;-61
2021/09/30 11:11:41;;;;;;;0.30;0.30;;;;;;;;;;5077526;28;20890;-60
2021/09/30 11:14:07;;;;;;;0.30;0.30;;;;;;;;;;5069119;28;20040;-61
2021/09/30 11:16:37;;;;;;;0.45;0.40;;;;;;;;;;5072534;28;20015;-61
2021/09/30 11:19:04;;;;;;;0.63;0.20;;;;;;;;;;5069173;28;20051;-60
2021/09/30 11:21:30;;;;;;;0.32;0.30;;;;;;;;;;5072116;28;20484;-60
2021/09/30 11:23:56;;;;;;;0.40;0.30;;;;;;;;;;5071295;28;20522;-61
2021/09/30 11:26:23;;;;;;;1.10;0.30;;;;;;;;;;5076532;28;20042;-60
2021/09/30 11:28:49;;;;;;;1.27;0.30;;;;;;;;;;5076782;28;20029;-61
2021/09/30 11:31:25;;;;;;;0.30;0.28;;;;;;;;;;5071683;28;20033;-59
2021/09/30 11:33:56;;;;;;;0.98;0.30;;;;;;;;;;5066096;28;20028;-60
2021/09/30 11:36:29;;;;;;;0.82;0.40;;;;;;;;;;5070799;28;20093;-59
2021/09/30 11:38:57;;;;;;;0.73;0.30;;;;;;;;;;5086408;28;20464;-59
2021/09/30 11:41:30;;;;;;;0.77;0.30;;;;;;;;;;5084956;28;20029;-58
2021/09/30 11:43:56;;;;;;;0.43;0.25;;;;;;;;;;5071463;28;20032;-58
2021/09/30 11:46:27;;;;;;;0.22;0.22;;;;;;;;;;5072074;28;20064;-58
2021/09/30 11:48:57;;;;;;;0.43;0.30;;;;;;;;;;5072577;28;20017;-58
2021/09/30 11:51:34;;;;;;;0.20;0.20;;;;;;;;;;5056077;28;20096;-58
2021/09/30 11:54:01;;;;;;;0.25;0.20;;;;;;;;;;5064046;28;20016;-58
2021/09/30 11:56:27;;;;;;;0.20;0.20;;;;;;;;;;5086532;28;20111;-58
2021/09/30 11:59:05;;;;;;;0.20;0.20;;;;;;;;;;5080102;28;20024;-58
2021/09/30 12:01:37;;;;;;;0.28;0.22;;;;;;;;;;5071425;28;20086;-58
2021/09/30 12:04:05;;;;;;;0.30;0.20;;;;;;;;;;5071483;28;20024;-58
2021/09/30 12:06:42;;;;;;;0.40;0.30;;;;;;;;;;5072100;28;20036;-60
2021/09/30 12:09:12;;;;;;;0.20;0.20;;;;;;;;;;5059540;28;20060;-59
2021/09/30 12:11:40;;;;;;;0.20;0.20;;;;;;;;;;5068408;28;20028;-58
2021/09/30 12:14:08;;;;;;;0.25;0.25;;;;;;;;;;5069144;28;20036;-60
2021/09/30 12:16:34;;;;;;;0.63;0.40;;;;;;;;;;5069263;28;20028;-59
2021/09/30 12:19:01;;;;;;;0.30;0.30;;;;;;;;;;5068231;28;20024;-59
2021/09/30 12:21:34;;;;;;;0.30;0.30;;;;;;;;;;5068072;28;20029;-59
2021/09/30 12:24:01;;;;;;;0.43;0.40;;;;;;;;;;5067085;28;20019;-59
2021/09/30 12:26:27;;;;;;;0.30;0.30;;;;;;;;;;5066846;28;20024;-59
2021/09/30 12:28:53;;;;;;;0.40;0.28;;;;;;;;;;5068654;28;20050;-60
2021/09/30 12:31:19;;;;;;;0.45;0.38;;;;;;;;;;5070051;28;20027;-59
2021/09/30 12:33:46;;;;;;;0.30;0.30;;;;;;;;;;5056296;28;20036;-60
2021/09/30 12:36:14;;;;;;;0.35;0.32;;;;;;;;;;5031591;28;20087;-59
2021/09/30 12:38:40;;;;;;;0.38;0.30;;;;;;;;;;5048799;28;20033;-60
2021/09/30 12:41:07;;;;;;;0.82;0.32;;;;;;;;;;5064856;28;20038;-60
2021/09/30 12:43:34;;;;;;;0.40;0.35;;;;;;;;;;5069194;28;20465;-59
2021/09/30 12:46:00;;;;;;;0.47;0.30;;;;;;;;;;5069130;28;20024;-58
2021/09/30 12:48:29;;;;;;;0.30;0.30;;;;;;;;;;5068228;28;20090;-59
2021/09/30 12:50:58;;;;;;;0.60;0.40;;;;;;;;;;5068862;28;20119;-59
2021/09/30 12:53:25;;;;;;;0.40;0.40;;;;;;;;;;5068546;28;20488;-59
2021/09/30 12:55:52;;;;;;;0.45;0.30;;;;;;;;;;5069019;28;20442;-59
2021/09/30 12:58:28;;;;;;;0.63;0.30;;;;;;;;;;5069601;28;20617;-58
2021/09/30 13:00:56;;;;;;;0.43;0.30;;;;;;;;;;5068950;28;20024;-58
2021/09/30 13:03:24;;;;;;;0.68;0.38;;;;;;;;;;5067942;28;20063;-58
2021/09/30 13:05:51;;;;;;;1.30;0.60;;;;;;;;;;5068173;28;20376;-59
2021/09/30 13:08:36;;;;;;;0.47;0.32;;;;;;;;;;5068333;28;20459;-59
2021/09/30 13:11:20;;;;;;;0.38;0.30;;;;;;;;;;5064804;28;20017;-59
2021/09/30 13:13:47;;;;;;;0.68;0.40;;;;;;;;;;5048147;28;20040;-59
2021/09/30 13:16:23;;;;;;;0.20;0.20;;;;;;;;;;5047640;28;20037;-59
2021/09/30 13:18:49;;;;;;;0.20;0.20;;;;;;;;;;5063155;28;20517;-58
2021/09/30 13:21:15;;;;;;;0.63;0.40;;;;;;;;;;5068359;28;20030;-59
2021/09/30 13:23:41;;;;;;;0.70;0.30;;;;;;;;;;5066390;28;20033;-59
2021/09/30 13:26:07;;;;;;;0.52;0.30;;;;;;;;;;5065707;28;20392;-58
2021/09/30 13:28:33;;;;;;;0.30;0.30;;;;;;;;;;5066094;28;20036;-58
2021/09/30 13:31:00;;;;;;;0.38;0.30;;;;;;;;;;5067474;28;20024;-58
2021/09/30 13:33:27;;;;;;;0.85;0.50;;;;;;;;;;5067219;28;20037;-58
2021/09/30 13:35:53;;;;;;;0.60;0.45;;;;;;;;;;5067035;28;20028;-59
2021/09/30 13:38:19;;;;;;;0.52;0.30;;;;;;;;;;5067706;28;20029;-59
2021/09/30 13:40:45;;;;;;;0.57;0.25;;;;;;;;;;5068088;28;20024;-58
2021/09/30 13:43:13;;;;;;;0.40;0.40;;;;;;;;;;5066975;28;20494;-59
2021/09/30 13:45:39;;;;;;;0.50;0.40;;;;;;;;;;5066793;28;20074;-60
2021/09/30 13:48:05;;;;;;;0.25;0.25;;;;;;;;;;5066305;28;20036;-60
2021/09/30 13:50:33;;;;;;;0.25;0.22;;;;;;;;;;5066425;28;20028;-60
2021/09/30 13:52:59;;;;;;;0.35;0.32;;;;;;;;;;5066653;28;20024;-60
2021/09/30 13:55:26;;;;;;;0.50;0.38;;;;;;;;;;5066438;28;20025;-60
2021/09/30 13:57:53;;;;;;;0.20;0.20;;;;;;;;;;5066711;28;20032;-60
2021/09/30 14:00:20;;;;;;;0.30;0.30;;;;;;;;;;5067720;28;20087;-60
2021/09/30 14:02:47;;;;;;;0.38;0.32;;;;;;;;;;5066796;28;20043;-60
2021/09/30 14:05:14;;;;;;;0.73;0.50;;;;;;;;;;5066488;28;20024;-60
2021/09/30 14:07:41;;;;;;;1.17;0.90;;;;;;;;;;5066474;28;20498;-60
2021/09/30 14:10:09;;;;;;;0.80;0.60;;;;;;;;;;5066523;28;20036;-60
2021/09/30 14:12:35;;;;;;;0.40;0.40;;;;;;;;;;5065947;28;20029;-60
2021/09/30 14:15:01;;;;;;;0.40;0.38;;;;;;;;;;5066351;28;20048;-60
2021/09/30 14:17:27;;;;;;;0.40;0.40;;;;;;;;;;5066008;28;20040;-60
2021/09/30 14:19:54;;;;;;;0.45;0.40;;;;;;;;;;5066065;28;20078;-60
2021/09/30 14:22:20;;;;;;;0.32;0.32;;;;;;;;;;5066784;28;20032;-60
2021/09/30 14:24:46;;;;;;;0.35;0.35;;;;;;;;;;5066481;28;20016;-60
2021/09/30 14:27:13;;;;;;;0.98;0.40;;;;;;;;;;5065233;28;20035;-60
2021/09/30 14:29:43;;;;;;;0.60;0.40;;;;;;;;;;5065558;28;20376;-60
2021/09/30 14:32:10;;;;;;;0.40;0.30;;;;;;;;;;5067667;28;20025;-60
2021/09/30 14:34:36;;;;;;;0.30;0.30;;;;;;;;;;5066409;28;20060;-60
2021/09/30 14:37:02;;;;;;;0.63;0.30;;;;;;;;;;5067395;28;20032;-60
2021/09/30 14:39:28;;;;;;;0.38;0.38;;;;;;;;;;5067112;28;20033;-60
2021/09/30 14:41:54;;;;;;;0.32;0.32;;;;;;;;;;5067451;28;20052;-60
2021/09/30 14:44:24;;;;;;;0.85;0.40;;;;;;;;;;5059563;28;20028;-60
2021/09/30 14:46:50;;;;;;;0.90;0.30;;;;;;;;;;5048193;28;20017;-60
2021/09/30 14:49:16;;;;;;;0.30;0.30;;;;;;;;;;5058828;28;20029;-60
2021/09/30 14:51:42;;;;;;;0.30;0.30;;;;;;;;;;5057550;28;20511;-59
2021/09/30 14:54:08;;;;;;;0.40;0.30;;;;;;;;;;5065285;28;20024;-60
2021/09/30 14:56:34;;;;;;;0.30;0.30;;;;;;;;;;5065834;28;20104;-60
2021/09/30 14:59:00;;;;;;;0.45;0.30;;;;;;;;;;5066218;28;20024;-60
2021/09/30 15:02:33;;;;;;;0.30;0.30;;;;;;;;;;5079288;28;20577;-59
2021/09/30 15:04:59;;;;;;;0.68;0.47;;;;;;;;;;5083484;28;20480;-59
2021/09/30 15:07:25;;;;;;;1.02;0.52;;;;;;;;;;5083354;28;20046;-60
2021/09/30 15:09:52;;;;;;;0.55;0.38;;;;;;;;;;5065043;28;20021;-59
2021/09/30 15:12:18;;;;;;;0.30;0.30;;;;;;;;;;5063506;28;20056;-60
2021/09/30 15:14:45;;;;;;;1.02;0.43;;;;;;;;;;5062017;28;20083;-59
2021/09/30 15:17:33;;;;;;;0.90;0.40;;;;;;;;;;5063145;28;20040;-59
2021/09/30 15:22:31;;;;;;;0.90;0.47;;;;;;;;;;5061442;28;20043;-59
2021/09/30 15:24:57;;;;;;;0.30;0.30;;;;;;;;;;5062743;28;20565;-60
2021/09/30 15:27:24;;;;;;;0.88;0.50;;;;;;;;;;5059592;28;20037;-60
2021/09/30 15:29:50;;;;;;;0.43;0.30;;;;;;;;;;5062091;28;20103;-60
2021/09/30 15:32:16;;;;;;;1.00;0.52;;;;;;;;;;5063162;28;20120;-60
2021/09/30 15:34:43;;;;;;;0.30;0.30;;;;;;;;;;5062371;28;20516;-60
2021/09/30 15:37:09;;;;;;;0.82;0.50;;;;;;;;;;5062348;28;20450;-59
2021/09/30 15:39:35;;;;;;;0.65;0.40;;;;;;;;;;5062260;28;20021;-60
2021/09/30 15:42:01;;;;;;;0.35;0.30;;;;;;;;;;5062576;28;20029;-60
2021/09/30 15:44:28;;;;;;;1.20;0.60;;;;;;;;;;5062130;28;20115;-60
2021/09/30 15:46:54;;;;;;;5.00;0.63;;;;;;;;;;5063633;28;20456;-60
2021/09/30 15:49:21;;;;;;;0.68;0.50;;;;;;;;;;5073712;28;20063;-60
2021/09/30 15:51:47;;;;;;;0.63;0.50;;;;;;;;;;5062931;28;20040;-59
2021/09/30 15:54:13;;;;;;;0.60;0.50;;;;;;;;;;5062454;28;20032;-59
2021/09/30 15:56:40;;;;;;;0.82;0.47;;;;;;;;;;5062218;28;20523;-59
2021/09/30 15:59:06;;;;;;;0.90;0.43;;;;;;;;;;5062324;28;20078;-60
2021/09/30 16:01:32;;;;;;;0.40;0.40;;;;;;;;;;5057858;28;20064;-59
2021/09/30 16:04:01;;;;;;;0.55;0.50;;;;;;;;;;5062427;28;20025;-59
2021/09/30 16:06:27;;;;;;;1.10;0.57;;;;;;;;;;5061567;28;20495;-58
2021/09/30 16:08:54;;;;;;;1.00;0.40;;;;;;;;;;5063012;28;20618;-60
2021/09/30 16:11:20;;;;;;;1.05;0.60;;;;;;;;;;5063815;28;20024;-60
2021/09/30 16:13:46;;;;;;;3.45;0.77;;;;;;;;;;5050673;28;20526;-60
2021/09/30 16:16:13;;;;;;;0.90;0.40;;;;;;;;;;5049989;28;20485;-60
2021/09/30 16:18:39;;;;;;;1.02;0.60;;;;;;;;;;5049794;28;20029;-60
2021/09/30 16:21:07;;;;;;;0.50;0.43;;;;;;;;;;5049716;28;20059;-59
2021/09/30 16:23:33;;;;;;;0.35;0.30;;;;;;;;;;5049467;28;20475;-60
2021/09/30 16:25:59;;;;;;;1.02;0.40;;;;;;;;;;5049930;28;20025;-60
2021/09/30 16:28:26;;;;;;;0.90;0.70;;;;;;;;;;5048814;28;20028;-60
2021/09/30 16:30:55;;;;;;;1.20;0.50;;;;;;;;;;5048386;28;20120;-60
2021/09/30 16:33:22;;;;;;;0.60;0.43;;;;;;;;;;5048304;28;20033;-61
2021/09/30 16:35:49;;;;;;;0.50;0.40;;;;;;;;;;5046446;28;20071;-61
2021/09/30 16:38:18;;;;;;;0.75;0.60;;;;;;;;;;5044487;28;20052;-60
2021/09/30 16:40:44;;;;;;;1.65;0.63;;;;;;;;;;5046494;28;20037;-60
2021/09/30 16:43:10;;;;;;;1.15;0.68;;;;;;;;;;5045860;28;20087;-59
2021/09/30 16:45:36;;;;;;;1.15;0.57;;;;;;;;;;5044792;28;20017;-59
2021/09/30 16:48:02;;;;;;;0.60;0.50;;;;;;;;;;5046684;28;20029;-60
2021/09/30 16:50:28;;;;;;;0.73;0.57;;;;;;;;;;5045281;28;20039;-60
2021/09/30 16:52:54;;;;;;;1.90;0.90;;;;;;;;;;5045975;28;20136;-61
2021/09/30 16:55:20;;;;;;;0.60;0.60;;;;;;;;;;5046471;28;20068;-61
2021/09/30 16:57:47;;;;;;;1.10;0.63;;;;;;;;;;5046632;28;20025;-61
2021/09/30 17:00:15;;;;;;;0.85;0.60;;;;;;;;;;5044750;28;20025;-61
2021/09/30 17:02:42;;;;;;;1.75;0.70;;;;;;;;;;5045672;28;20029;-60
2021/09/30 17:05:08;;;;;;;0.68;0.60;;;;;;;;;;5045663;28;20032;-60
2021/09/30 17:07:36;;;;;;;1.48;0.82;;;;;;;;;;5045531;28;20062;-60
2021/09/30 17:10:03;;;;;;;0.40;0.40;;;;;;;;;;5045633;28;20515;-60
2021/09/30 17:12:29;;;;;;;1.90;0.60;;;;;;;;;;5076894;28;20045;-60
2021/09/30 17:14:55;;;;;;;1.70;0.60;;;;;;;;;;5044294;28;20066;-60
2021/09/30 17:17:22;;;;;;;1.17;0.52;;;;;;;;;;5044065;28;20464;-59
2021/09/30 17:19:48;;;;;;;1.10;0.70;;;;;;;;;;5045973;28;20530;-60
2021/09/30 17:22:14;;;;;;;0.95;0.50;;;;;;;;;;5045314;28;20123;-59
2021/09/30 17:24:40;;;;;;;1.70;0.70;;;;;;;;;;5041690;28;20775;-59
2021/09/30 17:27:06;;;;;;;1.02;0.50;;;;;;;;;;5038997;28;20029;-60
2021/09/30 17:29:33;;;;;;;0.77;0.50;;;;;;;;;;5042264;28;20033;-56
2021/09/30 17:32:00;;;;;;;0.93;0.50;;;;;;;;;;5047357;28;20025;-58
2021/09/30 17:34:27;;;;;;;1.45;0.65;;;;;;;;;;5045412;28;20033;-58
2021/09/30 17:36:53;;;;;;;1.73;0.60;;;;;;;;;;5047212;28;20025;-58
2021/09/30 17:39:19;;;;;;;0.40;0.40;;;;;;;;;;5046221;28;20037;-58